Time;durP1;ratioP1;P1;durP2;ratioP2;P2;SDS_P1;SDS_P2;PMS_P1;PMS_P2;Temp;Humidity;BMP_temperature;BMP_pressure;BME280_temperature;BME280_humidity;BME280_pressure;Samples;Min_cycle;Max_cycle;Signal;HPM_P1;HPM_P2
2024/02/24 00:02:17;;;;;;;;;;;7.70;99.90;;;7.75;67.59;98334.75;4998036;28;19921;-81
2024/02/24 00:04:45;;;;;;;;;;;7.70;99.90;;;7.78;68.11;98322.84;5014497;28;19944;-81
2024/02/24 00:07:12;;;;;;;;;;;7.70;99.90;;;7.82;68.35;98323.16;4997358;28;19953;-81
2024/02/24 00:09:39;;;;;;;;;;;7.70;99.90;;;7.73;67.74;98326.25;4999969;28;19968;-81
2024/02/24 00:12:07;;;;;;;;;;;7.60;99.90;;;7.76;68.29;98324.97;4998097;28;19984;-81
2024/02/24 00:14:34;;;;;;;;;;;7.60;99.90;;;7.74;68.20;98329.69;4998335;28;19922;-81
2024/02/24 00:17:03;;;;;;;;;;;7.60;99.90;;;7.75;68.34;98326.78;4998455;28;19926;-81
2024/02/24 00:19:30;;;;;;;;;;;7.60;99.90;;;7.82;68.45;98325.81;4997327;28;19928;-81
2024/02/24 00:21:58;;;;;;;;;;;7.70;99.90;;;7.79;68.30;98329.75;4997962;28;19928;-81
2024/02/24 00:24:25;;;;;;;;;;;7.70;99.90;;;7.78;68.57;98320.19;4999608;28;19929;-81
2024/02/24 00:26:52;;;;;;;;;;;7.70;99.90;;;7.80;68.28;98330.56;5000286;28;19921;-81
2024/02/24 00:29:19;;;;;;;;;;;7.70;99.90;;;7.76;67.83;98327.63;4999866;28;19922;-81
2024/02/24 00:31:55;;;;;;;;;;;7.70;99.90;;;7.82;68.27;98323.97;4984907;28;19922;-81
2024/02/24 00:34:24;;;;;;;;;;;7.70;99.90;;;7.80;67.82;98325.25;4999349;28;19946;-81
2024/02/24 00:36:51;;;;;;;;;;;7.70;99.90;;;7.77;68.07;98320.44;4999912;28;20415;-81
2024/02/24 00:39:18;;;;;;;;;;;7.70;99.90;;;7.72;67.59;98318.53;5001561;28;19980;-81
2024/02/24 00:41:45;;;;;;;;;;;7.70;99.90;;;7.68;68.15;98331.47;5002361;28;20399;-81
2024/02/24 00:44:14;;;;;;;;;;;7.60;99.90;;;7.73;68.00;98323.59;5004059;28;20305;-81
2024/02/24 00:46:41;;;;;;;;;;;7.60;99.90;;;7.76;68.36;98317.00;5002479;28;19930;-81
2024/02/24 00:49:08;;;;;;;;;;;7.70;99.90;;;7.81;68.40;98310.94;5018439;28;20060;-81
2024/02/24 00:51:37;;;;;;;;;;;7.70;99.90;;;7.79;68.06;98321.78;5002500;28;19922;-81
2024/02/24 00:54:05;;;;;;;;;;;7.70;99.90;;;7.60;67.38;98323.13;5003214;28;19977;-82
2024/02/24 00:56:32;;;;;;;;;;;7.60;99.90;;;7.64;68.17;98330.34;5017760;28;20378;-82
2024/02/24 00:58:59;;;;;;;;;;;7.60;99.90;;;7.69;68.36;98325.13;5003613;28;19926;-81
2024/02/24 01:01:26;;;;;;;;;;;7.60;99.90;;;7.75;68.46;98324.13;5003609;28;19976;-82
2024/02/24 01:03:53;;;;;;;;;;;7.60;99.90;;;7.70;68.12;98331.22;5002199;28;19949;-82
2024/02/24 01:06:20;;;;;;;;;;;7.60;99.90;;;7.64;67.93;98340.16;5003433;28;20293;-82
2024/02/24 01:08:49;;;;;;;;;;;7.60;99.90;;;7.70;68.25;98329.38;5003053;28;19953;-81
2024/02/24 01:11:16;;;;;;;;;;;7.60;99.90;;;7.70;68.31;98334.69;4968995;28;19949;-81
2024/02/24 01:13:44;;;;;;;;;;;7.60;99.90;;;7.77;68.16;98339.03;5001992;28;19929;-81
2024/02/24 01:16:11;;;;;;;;;;;7.70;99.90;;;7.80;68.10;98341.16;4985918;28;19957;-81
2024/02/24 01:18:38;;;;;;;;;;;7.70;99.90;;;7.78;67.94;98336.13;5002451;28;19929;-82
2024/02/24 01:21:06;;;;;;;;;;;7.60;99.90;;;7.82;68.20;98333.78;5003091;28;19967;-81
2024/02/24 01:23:34;;;;;;;;;;;7.70;99.90;;;7.79;67.62;98336.91;5002658;28;19922;-81
2024/02/24 01:26:03;;;;;;;;;;;7.70;99.90;;;7.81;68.07;98342.78;5002762;28;19984;-81
2024/02/24 01:28:30;;;;;;;;;;;7.70;99.90;;;7.84;67.97;98356.34;5002393;28;19972;-81
2024/02/24 01:30:57;;;;;;;;;;;7.70;99.90;;;7.86;68.01;98340.22;5002693;28;19937;-81
2024/02/24 01:33:24;;;;;;;;;;;7.70;99.90;;;7.71;67.36;98338.97;5002427;28;20484;-82
2024/02/24 01:35:52;;;;;;;;;;;7.60;99.90;;;7.65;67.29;98342.56;5000940;28;19925;-82
2024/02/24 01:38:19;;;;;;;;;;;7.60;99.90;;;7.69;67.06;98340.25;5002719;28;19921;-82
2024/02/24 01:40:46;;;;;;;;;;;7.60;99.90;;;7.64;67.46;98334.88;5002634;28;19928;-81
2024/02/24 01:43:25;;;;;;;;;;;7.60;99.90;;;7.55;67.27;98337.13;5000995;28;20368;-82
2024/02/24 01:45:54;;;;;;;;;;;7.50;99.90;;;7.60;68.07;98334.53;5001148;28;19921;-81
2024/02/24 01:48:21;;;;;;;;;;;7.60;99.90;;;7.58;67.63;98331.34;5001224;28;20013;-81
2024/02/24 01:50:50;;;;;;;;;;;7.50;99.90;;;7.53;67.42;98333.94;5002502;28;19928;-81
2024/02/24 01:53:19;;;;;;;;;;;7.50;99.90;;;7.51;67.75;98333.34;5001250;28;20381;-81
2024/02/24 01:55:47;;;;;;;;;;;7.70;99.90;;;7.56;68.31;98336.06;4999817;28;19921;-81
2024/02/24 01:58:14;;;;;;;;;;;7.50;99.90;;;7.60;68.18;98336.41;5002376;28;19925;-82
2024/02/24 02:00:43;;;;;;;;;;;7.50;99.90;;;7.62;68.09;98340.44;5017567;28;19926;-81
2024/02/24 02:03:10;;;;;;;;;;;7.50;99.90;;;7.64;68.00;98340.97;5002815;28;19922;-82
2024/02/24 02:05:37;;;;;;;;;;;7.50;99.90;;;7.57;67.96;98347.50;5002032;28;19969;-81
2024/02/24 02:08:05;;;;;;;;;;;7.40;99.90;;;7.59;67.88;98345.41;5001739;28;19922;-81
2024/02/24 02:10:46;;;;;;;;;;;7.40;99.90;;;7.61;68.13;98340.66;5001680;28;19972;-81
2024/02/24 02:13:13;;;;;;;;;;;7.40;99.90;;;7.63;68.16;98338.56;5016972;28;19921;-81
2024/02/24 02:15:43;;;;;;;;;;;7.40;99.90;;;7.65;67.96;98339.91;5001008;28;20306;-82
2024/02/24 02:18:10;;;;;;;;;;;7.50;99.90;;;7.66;68.01;98338.88;5002461;28;19922;-82
2024/02/24 02:20:37;;;;;;;;;;;7.50;99.90;;;7.68;68.02;98343.94;5002386;28;19921;-81
2024/02/24 02:23:06;;;;;;;;;;;7.50;99.90;;;7.60;67.81;98339.06;5001719;28;19922;-81
2024/02/24 02:25:34;;;;;;;;;;;7.40;99.90;;;7.62;68.21;98339.63;5000405;28;19944;-82
2024/02/24 02:28:01;;;;;;;;;;;7.40;99.90;;;7.59;68.04;98334.78;5000305;28;19926;-82
2024/02/24 02:30:28;;;;;;;;;;;7.40;99.90;;;7.58;68.28;98336.66;5001879;28;19922;-81
2024/02/24 02:32:55;;;;;;;;;;;7.30;99.90;;;7.58;68.15;98341.97;5016931;28;19972;-82
2024/02/24 02:35:25;;;;;;;;;;;7.40;99.90;;;7.60;68.16;98347.81;5001643;28;19929;-82
2024/02/24 02:37:52;;;;;;;;;;;7.40;99.90;;;7.62;68.17;98348.38;4983951;28;19981;-82
2024/02/24 02:40:21;;;;;;;;;;;7.40;99.90;;;7.63;68.57;98347.34;5016938;28;20013;-81
2024/02/24 02:42:48;;;;;;;;;;;7.40;99.90;;;7.64;68.45;98340.97;5000464;28;19921;-81
2024/02/24 02:45:16;;;;;;;;;;;7.40;99.90;;;7.65;68.37;98347.88;5000741;28;19921;-81
2024/02/24 02:47:43;;;;;;;;;;;7.40;99.90;;;7.66;68.36;98344.19;5000410;28;19976;-81
2024/02/24 02:50:10;;;;;;;;;;;7.40;99.90;;;7.66;68.41;98344.19;4999839;28;20385;-81
2024/02/24 02:52:37;;;;;;;;;;;7.50;99.90;;;7.67;68.47;98343.16;5001386;28;19922;-81
2024/02/24 02:55:05;;;;;;;;;;;7.50;99.90;;;7.67;68.20;98339.69;5001170;28;20401;-81
2024/02/24 02:57:34;;;;;;;;;;;7.50;99.90;;;7.67;68.55;98345.00;5000979;28;19984;-82
2024/02/24 03:00:01;;;;;;;;;;;7.50;99.90;;;7.66;68.41;98344.19;5016053;28;19946;-82
2024/02/24 03:02:28;;;;;;;;;;;7.50;99.90;;;7.64;68.54;98351.56;5000171;28;19944;-81
2024/02/24 03:04:55;;;;;;;;;;;7.40;99.90;;;7.65;68.50;98353.19;4999924;28;20274;-81
2024/02/24 03:07:22;;;;;;;;;;;7.50;99.90;;;7.60;68.23;98352.31;5001127;28;20010;-82
2024/02/24 03:09:49;;;;;;;;;;;7.40;99.90;;;7.58;68.21;98347.25;4999116;28;19922;-82
2024/02/24 03:12:16;;;;;;;;;;;7.40;99.90;;;7.60;68.23;98347.00;4997713;28;19922;-81
2024/02/24 03:14:45;;;;;;;;;;;7.40;99.90;;;7.64;68.47;98348.13;5015913;28;19929;-81
2024/02/24 03:17:12;;;;;;;;;;;7.50;99.90;;;7.65;68.26;98347.88;5000693;28;19976;-81
2024/02/24 03:19:40;;;;;;;;;;;7.50;99.90;;;7.58;68.54;98349.91;4999004;28;19926;-81
2024/02/24 03:22:07;;;;;;;;;;;7.40;99.90;;;7.60;68.41;98357.63;4983508;28;20345;-82
2024/02/24 03:24:34;;;;;;;;;;;7.40;99.90;;;7.42;68.20;98354.19;4966028;28;20020;-82
2024/02/24 03:27:01;;;;;;;;;;;7.40;99.90;;;7.44;68.53;98351.28;4982060;28;19928;-82
2024/02/24 03:29:29;;;;;;;;;;;7.40;99.90;;;7.51;68.66;98351.13;4998706;28;19945;-81
2024/02/24 03:31:57;;;;;;;;;;;7.40;99.90;;;7.45;68.12;98355.53;4998119;28;19922;-82
2024/02/24 03:34:25;;;;;;;;;;;7.40;99.90;;;7.49;68.42;98348.72;4999593;28;20399;-82
2024/02/24 03:36:52;;;;;;;;;;;7.40;99.90;;;7.53;68.15;98354.34;4999570;28;19932;-82
2024/02/24 03:39:21;;;;;;;;;;;7.40;99.90;;;7.48;68.21;98347.91;5000400;28;19922;-82
2024/02/24 03:41:48;;;;;;;;;;;7.40;99.90;;;7.45;68.28;98358.19;5014340;28;19928;-81
2024/02/24 03:44:15;;;;;;;;;;;7.40;99.90;;;7.51;68.29;98362.53;4999559;28;20012;-81
2024/02/24 03:46:43;;;;;;;;;;;7.40;99.90;;;7.49;67.54;98359.31;4999487;28;19921;-82
2024/02/24 03:49:11;;;;;;;;;;;7.40;99.90;;;7.36;68.12;98364.94;4999342;28;19922;-81
2024/02/24 03:51:39;;;;;;;;;;;7.30;99.90;;;7.36;67.55;98359.66;4999726;28;20016;-81
2024/02/24 03:54:06;;;;;;;;;;;7.20;99.90;;;7.31;68.21;98363.03;4999224;28;19929;-81
2024/02/24 03:56:33;;;;;;;;;;;7.20;99.90;;;7.26;67.99;98365.59;4998957;28;19951;-81
2024/02/24 03:59:00;;;;;;;;;;;7.20;99.90;;;7.33;68.38;98370.75;4997871;28;19929;-81
2024/02/24 04:01:28;;;;;;;;;;;7.20;99.90;;;7.39;68.25;98375.09;4982215;28;19976;-81
2024/02/24 04:03:55;;;;;;;;;;;7.30;99.90;;;7.44;68.24;98380.47;4981229;28;20040;-81
2024/02/24 04:06:24;;;;;;;;;;;7.30;99.90;;;7.33;68.29;98387.47;4997635;28;19926;-81
2024/02/24 04:08:51;;;;;;;;;;;7.30;99.90;;;7.41;68.54;98379.09;4998993;28;19956;-81
2024/02/24 04:11:19;;;;;;;;;;;7.30;99.90;;;7.47;68.29;98390.59;5013781;28;19930;-81
2024/02/24 04:13:46;;;;;;;;;;;7.30;99.90;;;7.51;68.44;98390.91;4997500;28;19925;-81
2024/02/24 04:16:13;;;;;;;;;;;7.30;99.90;;;7.48;67.69;98389.56;4997455;28;20290;-81
2024/02/24 04:18:40;;;;;;;;;;;7.30;99.90;;;7.42;67.88;98395.84;4965293;28;19929;-81
2024/02/24 04:21:07;;;;;;;;;;;7.30;99.90;;;7.44;68.15;98401.69;4998959;28;19968;-81
2024/02/24 04:23:36;;;;;;;;;;;7.30;99.90;;;7.46;67.73;98396.94;4998754;28;19977;-81
2024/02/24 04:26:04;;;;;;;;;;;7.30;99.90;;;7.44;67.86;98399.03;4998028;28;20004;-81
2024/02/24 04:28:31;;;;;;;;;;;7.30;99.90;;;7.44;68.21;98396.38;5000235;28;19922;-81
2024/02/24 04:30:58;;;;;;;;;;;7.30;99.90;;;7.49;68.30;98405.22;5014168;28;20016;-81
2024/02/24 04:33:25;;;;;;;;;;;7.50;99.90;;;7.54;67.95;98404.50;4997493;28;19926;-81
2024/02/24 04:35:52;;;;;;;;;;;7.40;99.90;;;7.56;68.20;98399.72;4997770;28;19964;-81
2024/02/24 04:38:19;;;;;;;;;;;7.40;99.90;;;7.49;67.76;98397.25;5013609;28;19923;-81
2024/02/24 04:40:48;;;;;;;;;;;7.30;99.90;;;7.41;68.06;98404.81;4997513;28;19922;-81
2024/02/24 04:43:16;;;;;;;;;;;7.30;99.90;;;7.39;67.98;98409.56;4998583;28;20024;-81
2024/02/24 04:45:43;;;;;;;;;;;7.30;99.90;;;7.41;68.12;98412.75;5013526;28;19934;-81
2024/02/24 04:48:11;;;;;;;;;;;7.30;99.90;;;7.45;68.09;98421.84;4996787;28;20010;-81
2024/02/24 04:50:39;;;;;;;;;;;7.50;99.90;;;7.47;68.15;98422.44;4998791;28;20013;-81
2024/02/24 04:53:07;;;;;;;;;;;7.30;99.90;;;7.51;68.02;98420.06;4997480;28;19921;-81
2024/02/24 04:55:34;;;;;;;;;;;7.40;99.90;;;7.54;67.78;98420.41;4996812;28;19976;-81
2024/02/24 04:58:02;;;;;;;;;;;7.40;99.90;;;7.56;68.23;98425.47;5013176;28;20298;-81
2024/02/24 05:00:29;;;;;;;;;;;7.40;99.90;;;7.52;68.10;98419.84;4997581;28;20348;-81
2024/02/24 05:02:56;;;;;;;;;;;7.40;99.90;;;7.54;68.05;98419.59;4998922;28;19926;-82
2024/02/24 05:05:24;;;;;;;;;;;7.50;99.90;;;7.52;68.10;98424.34;5013155;28;19925;-82
2024/02/24 05:07:52;;;;;;;;;;;7.40;99.90;;;7.53;67.72;98429.41;4998618;28;19976;-81
2024/02/24 05:10:19;;;;;;;;;;;7.40;99.90;;;7.52;68.16;98427.00;4997648;28;19975;-81
2024/02/24 05:12:47;;;;;;;;;;;7.40;99.90;;;7.56;68.08;98433.41;5013416;28;20275;-81
2024/02/24 05:15:18;;;;;;;;;;;7.40;99.90;;;7.57;68.07;98440.34;4997840;28;19922;-81
2024/02/24 05:17:45;;;;;;;;;;;7.40;99.90;;;7.52;67.93;98434.97;4997411;28;20359;-81
2024/02/24 05:20:13;;;;;;;;;;;7.40;99.90;;;7.53;68.08;98437.38;4996663;28;19972;-81
2024/02/24 05:22:40;;;;;;;;;;;7.40;99.90;;;7.57;68.25;98437.69;4996535;28;19953;-81
2024/02/24 05:25:09;;;;;;;;;;;7.40;99.90;;;7.58;67.89;98447.25;5001454;28;19928;-81
2024/02/24 05:27:37;;;;;;;;;;;7.40;99.90;;;7.54;67.95;98440.81;5002129;28;19953;-82
2024/02/24 05:30:08;;;;;;;;;;;7.40;99.90;;;7.54;68.03;98454.88;5002417;28;19925;-82
2024/02/24 05:32:36;;;;;;;;;;;7.40;99.90;;;7.57;68.03;98458.91;4985992;28;20289;-81
2024/02/24 05:35:04;;;;;;;;;;;7.40;99.90;;;7.59;68.01;98462.91;5000118;28;19926;-82
2024/02/24 05:37:32;;;;;;;;;;;7.40;99.90;;;7.56;67.44;98455.44;5002187;28;19921;-81
2024/02/24 05:40:00;;;;;;;;;;;7.40;99.90;;;7.58;67.70;98456.00;5001886;28;19921;-81
2024/02/24 05:42:27;;;;;;;;;;;7.40;99.90;;;7.59;67.82;98460.28;5002617;28;19921;-81
2024/02/24 05:44:54;;;;;;;;;;;7.40;99.90;;;7.59;68.04;98465.56;5001836;28;20019;-81
2024/02/24 05:47:22;;;;;;;;;;;7.40;99.90;;;7.61;68.20;98462.66;4982186;28;19922;-81
2024/02/24 05:49:51;;;;;;;;;;;7.40;99.90;;;7.62;67.86;98469.59;4967373;28;20020;-81
2024/02/24 05:52:18;;;;;;;;;;;7.40;99.90;;;7.62;67.77;98466.97;5000282;28;20296;-81
2024/02/24 05:54:45;;;;;;;;;;;7.40;99.90;;;7.62;67.94;98465.09;5000994;28;19976;-82
2024/02/24 05:57:12;;;;;;;;;;;7.40;99.90;;;7.61;67.61;98468.81;5000761;28;20017;-82
2024/02/24 05:59:40;;;;;;;;;;;7.40;99.90;;;7.61;67.60;98468.81;5000874;28;19973;-81
2024/02/24 06:02:07;;;;;;;;;;;7.40;99.90;;;7.62;67.52;98462.44;4998761;28;19922;-82
2024/02/24 06:04:34;;;;;;;;;;;7.40;99.90;;;7.63;67.77;98481.81;4999143;28;19973;-82
2024/02/24 06:07:03;;;;;;;;;;;7.40;99.90;;;7.59;67.97;98470.88;5001140;28;19986;-82
2024/02/24 06:09:30;;;;;;;;;;;7.40;99.90;;;7.52;67.83;98474.75;5000656;28;19968;-82
2024/02/24 06:11:57;;;;;;;;;;;7.40;99.90;;;7.55;67.84;98485.66;5000487;28;19921;-82
2024/02/24 06:14:25;;;;;;;;;;;7.40;99.90;;;7.57;68.24;98486.25;5000451;28;20032;-82
2024/02/24 06:16:52;;;;;;;;;;;7.40;99.90;;;7.59;68.12;98491.28;4999995;28;19944;-82
2024/02/24 06:19:19;;;;;;;;;;;7.40;99.90;;;7.60;68.17;98491.03;4983063;28;19922;-82
2024/02/24 06:21:46;;;;;;;;;;;7.40;99.90;;;7.61;67.97;98494.50;5000636;28;19921;-82
2024/02/24 06:24:15;;;;;;;;;;;7.40;99.90;;;7.61;68.13;98491.84;4998602;28;19922;-82
2024/02/24 06:26:42;;;;;;;;;;;7.50;99.90;;;7.60;67.99;98498.22;5014733;28;20397;-82
2024/02/24 06:29:11;;;;;;;;;;;7.40;99.90;;;7.60;68.11;98503.50;4998846;28;20020;-82
2024/02/24 06:31:39;;;;;;;;;;;7.40;99.90;;;7.61;67.80;98505.13;4999895;28;19922;-82
2024/02/24 06:34:06;;;;;;;;;;;7.40;99.90;;;7.60;67.78;98499.00;4998577;28;19928;-82
2024/02/24 06:36:33;;;;;;;;;;;7.40;99.90;;;7.62;67.93;98501.44;4999263;28;20007;-82
2024/02/24 06:39:00;;;;;;;;;;;7.50;99.90;;;7.61;68.28;98500.63;4999284;28;19922;-82
2024/02/24 06:41:28;;;;;;;;;;;7.40;99.90;;;7.63;68.25;98497.75;5000346;28;19922;-82
2024/02/24 06:43:56;;;;;;;;;;;7.50;99.90;;;7.64;68.19;98505.44;5000125;28;19928;-85
2024/02/24 06:46:24;;;;;;;;;;;7.50;99.90;;;7.64;67.94;98509.94;5016753;28;19929;-84
2024/02/24 06:48:51;;;;;;;;;;;7.50;99.90;;;7.65;68.12;98500.94;4997503;28;19921;-86
2024/02/24 06:51:18;;;;;;;;;;;7.50;99.90;;;7.64;68.17;98505.44;4995680;28;19960;-85
2024/02/24 06:53:47;;;;;;;;;;;7.50;99.90;;;7.64;68.16;98507.31;4995012;28;19933;-85
2024/02/24 06:56:15;;;;;;;;;;;7.50;99.90;;;7.64;68.34;98505.44;4995963;28;19928;-86
2024/02/24 06:58:44;;;;;;;;;;;7.50;99.90;;;7.59;68.04;98513.31;4994474;28;19976;-86
2024/02/24 07:01:12;;;;;;;;;;;7.40;99.90;;;7.58;68.14;98503.75;4945973;28;20016;-86
2024/02/24 07:03:39;;;;;;;;;;;7.40;99.90;;;7.48;67.50;98504.41;4994005;28;19925;-86
2024/02/24 07:06:07;;;;;;;;;;;7.40;99.90;;;7.45;67.56;98504.88;4978285;28;19925;-86
2024/02/24 07:08:34;;;;;;;;;;;7.40;99.90;;;7.49;68.17;98513.16;4995156;28;20020;-86
2024/02/24 07:11:03;;;;;;;;;;;7.40;99.90;;;7.54;68.27;98521.19;4994302;28;19929;-86
2024/02/24 07:13:30;;;;;;;;;;;7.40;99.90;;;7.57;68.32;98520.72;5010778;28;20297;-87
2024/02/24 07:15:59;;;;;;;;;;;7.50;99.90;;;7.60;68.17;98522.88;4995294;28;19922;-86
2024/02/24 07:18:26;;;;;;;;;;;7.40;99.90;;;7.57;67.33;98527.88;4995187;28;20397;-87
2024/02/24 07:20:54;;;;;;;;;;;7.40;99.90;;;7.50;68.05;98530.66;4994344;28;19926;-87
2024/02/24 07:23:21;;;;;;;;;;;7.40;99.90;;;7.54;68.08;98537.09;4994207;28;19921;-87
2024/02/24 07:25:48;;;;;;;;;;;7.40;99.90;;;7.53;67.93;98546.13;4994892;28;19922;-86
2024/02/24 07:28:16;;;;;;;;;;;7.40;99.90;;;7.54;67.99;98550.38;4995367;28;19972;-87
2024/02/24 07:30:43;;;;;;;;;;;7.40;99.90;;;7.57;67.96;98557.06;4994904;28;20435;-85
2024/02/24 07:33:12;;;;;;;;;;;7.40;99.90;;;7.54;67.97;98558.34;4995291;28;20285;-85
2024/02/24 07:35:40;;;;;;;;;;;7.40;99.90;;;7.57;67.92;98565.81;4995358;28;20393;-85
2024/02/24 07:38:07;;;;;;;;;;;7.40;99.90;;;7.56;67.83;98563.38;4994631;28;19921;-85
2024/02/24 07:40:35;;;;;;;;;;;7.50;99.90;;;7.57;68.05;98570.31;4995135;28;20008;-83
2024/02/24 07:43:02;;;;;;;;;;;7.50;99.90;;;7.61;67.97;98574.09;4995994;28;19957;-85
2024/02/24 07:45:31;;;;;;;;;;;7.50;99.90;;;7.55;67.96;98575.84;4995355;28;19972;-85
2024/02/24 07:47:58;;;;;;;;;;;7.50;99.90;;;7.57;68.24;98581.75;4978689;28;20400;-85
2024/02/24 07:50:28;;;;;;;;;;;7.50;99.90;;;7.58;68.23;98579.88;4996225;28;19928;-82
2024/02/24 07:52:55;;;;;;;;;;;7.60;99.90;;;7.61;68.19;98585.53;4998121;28;19922;-82
2024/02/24 07:55:25;;;;;;;;;;;7.50;99.90;;;7.62;67.95;98583.69;4998317;28;19926;-82
2024/02/24 07:57:52;;;;;;;;;;;7.50;99.90;;;7.65;68.17;98591.94;5013527;28;19921;-82
2024/02/24 08:00:21;;;;;;;;;;;7.50;99.90;;;7.64;68.43;98595.66;4999146;28;20300;-82
2024/02/24 08:02:49;;;;;;;;;;;7.50;99.90;;;7.66;68.32;98596.22;4997772;28;20312;-81
2024/02/24 08:05:18;;;;;;;;;;;7.50;99.90;;;7.68;68.50;98602.09;5006277;28;19922;-81
2024/02/24 08:07:47;;;;;;;;;;;7.60;99.90;;;7.67;68.09;98599.69;4990557;28;20401;-82
2024/02/24 08:10:14;;;;;;;;;;;7.60;99.90;;;7.63;67.92;98604.66;4989880;28;19922;-81
2024/02/24 08:12:41;;;;;;;;;;;7.50;99.90;;;7.64;68.27;98603.59;4983811;28;19921;-82
2024/02/24 08:15:11;;;;;;;;;;;7.60;99.90;;;7.67;68.37;98608.44;4992264;28;19970;-81
2024/02/24 08:17:39;;;;;;;;;;;7.60;99.90;;;7.71;68.65;98609.59;4990812;28;20370;-81
2024/02/24 08:20:08;;;;;;;;;;;7.60;99.90;;;7.71;68.84;98609.59;5025464;28;20388;-82
2024/02/24 08:22:36;;;;;;;;;;;7.60;99.90;;;7.74;68.89;98603.78;4997824;28;19922;-82
2024/02/24 08:25:05;;;;;;;;;;;7.70;99.90;;;7.72;68.83;98611.19;4997606;28;19944;-82
2024/02/24 08:27:32;;;;;;;;;;;7.70;99.90;;;7.71;69.21;98612.25;4998662;28;19953;-82
2024/02/24 08:29:59;;;;;;;;;;;7.70;99.90;;;7.63;68.05;98611.81;5025054;28;20405;-81
2024/02/24 08:32:26;;;;;;;;;;;7.70;99.90;;;7.68;68.83;98603.94;4998934;28;19976;-81
2024/02/24 08:34:53;;;;;;;;;;;7.70;99.90;;;7.72;68.70;98613.03;5000284;28;20352;-81
2024/02/24 08:37:20;;;;;;;;;;;7.70;99.90;;;7.70;69.20;98613.25;5000919;28;19928;-81
2024/02/24 08:39:48;;;;;;;;;;;7.70;99.90;;;7.78;69.19;98620.03;4998061;28;19994;-80
2024/02/24 08:42:17;;;;;;;;;;;7.70;99.90;;;7.67;68.80;98616.41;4998501;28;19968;-81
2024/02/24 08:44:44;;;;;;;;;;;7.70;99.90;;;7.62;69.34;98629.59;4996190;28;19929;-84
2024/02/24 08:47:11;;;;;;;;;;;7.70;99.90;;;7.59;69.62;98634.53;4998749;28;19922;-82
2024/02/24 08:49:42;;;;;;;;;;;7.70;99.90;;;7.61;69.50;98627.97;5000787;28;19948;-81
2024/02/24 08:52:09;;;;;;;;;;;7.60;99.90;;;7.49;70.03;98638.63;4999252;28;19925;-81
2024/02/24 08:54:36;;;;;;;;;;;7.60;99.90;;;7.29;70.77;98645.38;4999836;28;19985;-81
2024/02/24 08:57:03;;;;;;;;;;;7.40;99.90;;;7.10;71.72;98642.06;4999883;28;20297;-81
2024/02/24 08:59:32;;;;;;;;;;;7.30;99.90;;;7.19;72.13;98651.28;5000818;28;20389;-82
2024/02/24 09:02:01;;;;;;;;;;;7.30;99.90;;;7.23;72.55;98655.06;4989010;28;19926;-82
2024/02/24 09:04:28;;;;;;;;;;;7.30;99.90;;;7.32;72.61;98658.97;4986617;28;19949;-85
2024/02/24 09:06:55;;;;;;;;;;;7.30;99.90;;;7.39;72.64;98664.13;4996324;28;19922;-82
2024/02/24 09:09:23;;;;;;;;;;;7.40;99.90;;;7.22;72.88;98667.53;5002741;28;19959;-82
2024/02/24 09:11:50;;;;;;;;;;;7.50;99.90;;;7.30;73.39;98674.28;4989971;28;19921;-82
2024/02/24 09:14:17;;;;;;;;;;;7.30;99.90;;;7.33;73.54;98673.84;4953093;28;19929;-83
2024/02/24 09:16:46;;;;;;;;;;;7.30;99.90;;;7.32;73.52;98677.53;4987064;28;19922;-83
2024/02/24 09:19:13;;;;;;;;;;;7.30;99.90;;;7.30;73.78;98678.78;4983299;28;19922;-82
2024/02/24 09:21:44;;;;;;;;;;;7.30;99.90;;;7.31;74.14;98686.50;4985478;28;19945;-82
2024/02/24 09:24:11;;;;;;;;;;;7.30;99.90;;;7.35;74.28;98682.34;4983581;28;19925;-82
2024/02/24 09:26:38;;;;;;;;;;;7.30;99.90;;;7.35;74.14;98684.19;4984979;28;19933;-82
2024/02/24 09:29:05;;;;;;;;;;;7.30;99.90;;;7.31;74.42;98686.50;4969257;28;19926;-82
2024/02/24 09:31:33;;;;;;;;;;;7.30;99.90;;;7.23;74.26;98695.66;4984354;28;19922;-81
2024/02/24 09:34:02;;;;;;;;;;;7.20;99.90;;;7.30;74.69;98700.81;5003444;28;19981;-82
2024/02/24 09:36:29;;;;;;;;;;;7.20;99.90;;;7.33;74.34;98697.69;5000430;28;19925;-82
2024/02/24 09:39:03;;;;;;;;;;;7.20;99.90;;;7.39;74.65;98720.63;4999659;28;19933;-82
2024/02/24 09:41:32;;;;;;;;;;;7.30;99.90;;;7.12;73.81;98715.00;4991949;28;19961;-82
2024/02/24 09:44:00;;;;;;;;;;;7.20;99.90;;;7.01;74.74;98718.47;5027286;28;20278;-82
2024/02/24 09:46:27;;;;;;;;;;;7.10;99.90;;;7.05;74.78;98724.94;5005489;28;19922;-82
2024/02/24 09:48:55;;;;;;;;;;;7.10;99.90;;;7.05;74.31;98726.78;4989894;28;20421;-82
2024/02/24 09:51:24;;;;;;;;;;;7.10;99.90;;;7.00;74.63;98729.31;4985429;28;19929;-82
2024/02/24 09:53:51;;;;;;;;;;;7.00;99.90;;;7.06;75.32;98734.50;4983977;28;19937;-82
2024/02/24 09:56:20;;;;;;;;;;;7.10;99.90;;;6.90;75.06;98740.50;4983982;28;19933;-82
2024/02/24 09:58:48;;;;;;;;;;;7.00;99.90;;;6.82;75.59;98748.78;4998028;28;19944;-81
2024/02/24 10:01:15;;;;;;;;;;;7.00;99.90;;;6.95;76.03;98751.22;4981422;28;19947;-82
2024/02/24 10:03:43;;;;;;;;;;;7.00;99.90;;;6.91;76.61;98750.84;4986576;28;19968;-82
2024/02/24 10:06:11;;;;;;;;;;;7.00;99.90;;;7.04;76.97;98756.97;4986373;28;19930;-82
2024/02/24 10:08:40;;;;;;;;;;;7.10;99.90;;;7.09;77.00;98760.56;5001612;28;20417;-82
2024/02/24 10:11:09;;;;;;;;;;;7.20;99.90;;;7.15;76.75;98769.41;5003678;28;19925;-83
2024/02/24 10:13:36;;;;;;;;;;;7.30;99.90;;;7.23;77.62;98759.28;5027254;28;19922;-82
2024/02/24 10:16:06;;;;;;;;;;;7.30;99.90;;;7.31;77.00;98778.50;4954089;28;19921;-84
2024/02/24 10:18:33;;;;;;;;;;;7.70;99.90;;;7.33;76.41;98774.59;5002169;28;19944;-83
2024/02/24 10:21:04;;;;;;;;;;;7.40;99.90;;;7.23;76.23;98772.53;5035618;28;20028;-84
2024/02/24 10:23:33;;;;;;;;;;;7.40;99.90;;;7.26;75.65;98776.56;5004641;28;19925;-84
2024/02/24 10:26:07;;;;;;;;;;;7.40;99.90;;;7.29;75.54;98783.25;5003523;28;19928;-84
2024/02/24 10:28:36;;;;;;;;;;;7.50;99.90;;;7.31;74.68;98786.47;5017768;28;19921;-84
2024/02/24 10:31:04;;;;;;;;;;;7.50;99.90;;;7.26;74.35;98789.00;5003020;28;20481;-84
2024/02/24 10:33:31;;;;;;;;;;;7.40;99.90;;;7.32;74.41;98783.59;5033304;28;19921;-84
2024/02/24 10:36:00;;;;;;;;;;;7.40;99.90;;;7.33;73.91;98787.88;5000244;28;19932;-84
2024/02/24 10:38:28;;;;;;;;;;;7.50;99.90;;;7.27;73.82;98796.75;5001577;28;20300;-84
2024/02/24 10:40:57;;;;;;;;;;;7.40;99.90;;;7.30;74.08;98801.56;5002224;28;19921;-82
2024/02/24 10:43:28;;;;;;;;;;;7.40;99.90;;;7.27;73.81;98809.19;4987193;28;19929;-82
2024/02/24 10:45:55;;;;;;;;;;;7.40;99.90;;;7.39;74.02;98807.34;4980480;28;20346;-83
2024/02/24 10:48:22;;;;;;;;;;;7.40;99.90;;;7.46;74.08;98803.50;4981754;28;19953;-83
2024/02/24 10:50:51;;;;;;;;;;;7.50;99.90;;;7.45;72.79;98798.44;4982981;28;20036;-82
2024/02/24 10:53:25;;;;;;;;;;;7.50;99.90;;;7.42;72.80;98802.41;4981614;28;19925;-82
2024/02/24 10:55:53;;;;;;;;;;;7.50;99.90;;;7.44;72.85;98813.56;4984037;28;19972;-83
2024/02/24 10:58:20;;;;;;;;;;;7.50;99.90;;;7.36;71.93;98811.25;4982023;28;20390;-82
2024/02/24 11:00:50;;;;;;;;;;;7.50;99.90;;;7.46;73.38;98815.97;4981904;28;19929;-83
2024/02/24 11:03:20;;;;;;;;;;;7.60;99.90;;;7.51;72.54;98818.75;4977307;28;19953;-82
2024/02/24 11:05:48;;;;;;;;;;;7.60;99.90;;;7.50;71.91;98817.13;4981196;28;19922;-82
2024/02/24 11:08:34;;;;;;;;;;;7.60;99.90;;;7.50;71.15;98811.81;4980284;28;19969;-82
2024/02/24 11:11:04;;;;;;;;;;;7.60;99.90;;;7.60;71.74;98817.34;4980094;28;20412;-82
2024/02/24 11:13:32;;;;;;;;;;;7.60;99.90;;;7.65;72.03;98809.50;4978314;28;19929;-82
2024/02/24 11:16:01;;;;;;;;;;;7.70;99.90;;;7.64;70.90;98815.84;4981327;28;19925;-82
2024/02/24 11:18:57;;;;;;;;;;;7.70;99.90;;;7.78;71.61;98821.72;4978427;28;19922;-82
2024/02/24 11:21:57;;;;;;;;;;;7.80;99.90;;;7.81;70.60;98826.56;4981423;28;19922;-82
2024/02/24 11:24:30;;;;;;;;;;;7.90;99.90;;;7.73;68.76;98827.72;4981179;28;19922;-82
2024/02/24 11:26:57;;;;;;;;;;;7.90;99.90;;;7.66;68.21;98826.22;4982515;28;19929;-82
2024/02/24 11:29:26;;;;;;;;;;;7.80;99.90;;;7.60;67.74;98822.66;4965246;28;20258;-82
2024/02/24 11:32:06;;;;;;;;;;;7.80;99.90;;;7.45;67.92;98815.16;4982558;28;19932;-82
2024/02/24 11:34:34;;;;;;;;;;;7.80;99.90;;;7.60;69.13;98822.66;4982682;28;20382;-82
2024/02/24 11:37:02;;;;;;;;;;;7.80;99.90;;;7.65;68.65;98830.72;4981149;28;19973;-82
2024/02/24 11:39:30;;;;;;;;;;;7.80;99.90;;;7.61;68.68;98823.47;4982452;28;19922;-82